sensor_id;sensor_type;location;lat;lon;timestamp;pressure;altitude;pressure_sealevel;temperature;humidity
35778;BME280;21899;42.662;23.316;2024-01-06T00:00:30;94209.72;;;14.87;46.41
35778;BME280;21899;42.662;23.316;2024-01-06T00:02:55;94209.84;;;14.80;47.04
35778;BME280;21899;42.662;23.316;2024-01-06T00:05:21;94221.00;;;14.82;47.20
35778;BME280;21899;42.662;23.316;2024-01-06T00:07:46;94198.38;;;14.76;47.33
35778;BME280;21899;42.662;23.316;2024-01-06T00:10:12;94187.13;;;14.81;47.33
35778;BME280;21899;42.662;23.316;2024-01-06T00:12:37;94178.91;;;14.88;47.10
35778;BME280;21899;42.662;23.316;2024-01-06T00:15:03;94184.34;;;15.04;46.69
35778;BME280;21899;42.662;23.316;2024-01-06T00:17:29;94205.41;;;15.09;46.83
35778;BME280;21899;42.662;23.316;2024-01-06T00:19:54;94214.69;;;15.08;46.46
35778;BME280;21899;42.662;23.316;2024-01-06T00:22:20;94222.63;;;14.96;46.55
35778;BME280;21899;42.662;23.316;2024-01-06T00:24:46;94217.72;;;15.10;46.14
35778;BME280;21899;42.662;23.316;2024-01-06T00:27:12;94211.09;;;14.95;46.59
35778;BME280;21899;42.662;23.316;2024-01-06T00:29:38;94199.97;;;14.74;47.11
35778;BME280;21899;42.662;23.316;2024-01-06T00:32:04;94217.59;;;14.78;47.05
35778;BME280;21899;42.662;23.316;2024-01-06T00:34:30;94227.22;;;14.99;46.59
35778;BME280;21899;42.662;23.316;2024-01-06T00:36:55;94214.53;;;14.96;46.86
35778;BME280;21899;42.662;23.316;2024-01-06T00:39:21;94215.19;;;14.84;47.30
35778;BME280;21899;42.662;23.316;2024-01-06T00:41:47;94210.94;;;14.83;47.40
35778;BME280;21899;42.662;23.316;2024-01-06T00:44:12;94208.06;;;14.93;46.82
35778;BME280;21899;42.662;23.316;2024-01-06T00:46:39;94216.31;;;15.02;46.59
35778;BME280;21899;42.662;23.316;2024-01-06T00:49:04;94201.97;;;14.89;46.84
35778;BME280;21899;42.662;23.316;2024-01-06T00:51:30;94194.78;;;14.83;47.29
35778;BME280;21899;42.662;23.316;2024-01-06T00:53:55;94192.72;;;14.90;47.05
35778;BME280;21899;42.662;23.316;2024-01-06T00:56:22;94200.31;;;14.95;46.63
35778;BME280;21899;42.662;23.316;2024-01-06T00:58:47;94197.75;;;14.88;46.93
35778;BME280;21899;42.662;23.316;2024-01-06T01:01:13;94195.44;;;14.71;47.44
35778;BME280;21899;42.662;23.316;2024-01-06T01:03:38;94198.13;;;14.71;47.41
35778;BME280;21899;42.662;23.316;2024-01-06T01:06:03;94200.59;;;14.81;47.36
35778;BME280;21899;42.662;23.316;2024-01-06T01:08:29;94200.53;;;14.85;47.04
35778;BME280;21899;42.662;23.316;2024-01-06T01:10:56;94198.19;;;14.87;47.35
35778;BME280;21899;42.662;23.316;2024-01-06T01:13:22;94204.66;;;14.89;46.83
35778;BME280;21899;42.662;23.316;2024-01-06T01:15:48;94195.06;;;14.88;46.98
35778;BME280;21899;42.662;23.316;2024-01-06T01:18:14;94186.28;;;14.84;46.75
35778;BME280;21899;42.662;23.316;2024-01-06T01:20:39;94186.75;;;14.79;47.12
35778;BME280;21899;42.662;23.316;2024-01-06T01:23:07;94195.91;;;14.66;47.07
35778;BME280;21899;42.662;23.316;2024-01-06T01:25:33;94191.41;;;14.59;47.18
35778;BME280;21899;42.662;23.316;2024-01-06T01:27:58;94190.28;;;14.57;47.21
35778;BME280;21899;42.662;23.316;2024-01-06T01:30:24;94179.03;;;14.42;48.20
35778;BME280;21899;42.662;23.316;2024-01-06T01:32:49;94176.88;;;14.33;48.05
35778;BME280;21899;42.662;23.316;2024-01-06T01:35:15;94182.75;;;14.48;47.73
35778;BME280;21899;42.662;23.316;2024-01-06T01:37:40;94175.81;;;14.51;47.84
35778;BME280;21899;42.662;23.316;2024-01-06T01:40:06;94163.16;;;14.48;47.98
35778;BME280;21899;42.662;23.316;2024-01-06T01:42:32;94167.13;;;14.39;48.42
35778;BME280;21899;42.662;23.316;2024-01-06T01:44:58;94169.09;;;14.39;48.33
35778;BME280;21899;42.662;23.316;2024-01-06T01:47:23;94156.66;;;14.45;48.32
35778;BME280;21899;42.662;23.316;2024-01-06T01:49:49;94160.78;;;14.50;48.06
35778;BME280;21899;42.662;23.316;2024-01-06T01:52:15;94165.69;;;14.55;48.27
35778;BME280;21899;42.662;23.316;2024-01-06T01:54:42;94159.56;;;14.54;48.17
35778;BME280;21899;42.662;23.316;2024-01-06T01:57:10;94156.94;;;14.51;48.08
35778;BME280;21899;42.662;23.316;2024-01-06T01:59:36;94154.88;;;14.58;47.81
35778;BME280;21899;42.662;23.316;2024-01-06T02:02:02;94156.94;;;14.70;47.71
35778;BME280;21899;42.662;23.316;2024-01-06T02:04:27;94155.09;;;14.67;47.58
35778;BME280;21899;42.662;23.316;2024-01-06T02:06:53;94141.88;;;14.53;47.81
35778;BME280;21899;42.662;23.316;2024-01-06T02:09:19;94148.22;;;14.43;48.24
35778;BME280;21899;42.662;23.316;2024-01-06T02:11:44;94139.41;;;14.62;47.69
35778;BME280;21899;42.662;23.316;2024-01-06T02:14:10;94126.19;;;14.68;47.65
35778;BME280;21899;42.662;23.316;2024-01-06T02:16:35;94126.41;;;14.57;47.86
35778;BME280;21899;42.662;23.316;2024-01-06T02:19:01;94123.84;;;14.70;47.83
35778;BME280;21899;42.662;23.316;2024-01-06T02:21:28;94121.63;;;14.65;47.64
35778;BME280;21899;42.662;23.316;2024-01-06T02:23:56;94126.19;;;14.68;48.07
35778;BME280;21899;42.662;23.316;2024-01-06T02:26:21;94124.88;;;14.56;48.21
35778;BME280;21899;42.662;23.316;2024-01-06T02:28:47;94117.28;;;14.51;47.87
35778;BME280;21899;42.662;23.316;2024-01-06T02:31:14;94112.91;;;14.41;47.83
35778;BME280;21899;42.662;23.316;2024-01-06T02:33:40;94110.75;;;14.32;47.27
35778;BME280;21899;42.662;23.316;2024-01-06T02:36:05;94091.94;;;14.09;47.65
35778;BME280;21899;42.662;23.316;2024-01-06T02:38:32;94099.06;;;14.19;47.58
35778;BME280;21899;42.662;23.316;2024-01-06T02:40:57;94102.03;;;14.45;47.46
35778;BME280;21899;42.662;23.316;2024-01-06T02:43:23;94091.19;;;14.48;47.24
35778;BME280;21899;42.662;23.316;2024-01-06T02:45:48;94094.25;;;14.50;46.94
35778;BME280;21899;42.662;23.316;2024-01-06T02:48:14;94100.09;;;14.65;46.79
35778;BME280;21899;42.662;23.316;2024-01-06T02:50:40;94100.38;;;14.70;46.46
35778;BME280;21899;42.662;23.316;2024-01-06T02:53:05;94101.31;;;14.80;46.65
35778;BME280;21899;42.662;23.316;2024-01-06T02:55:31;94089.78;;;14.79;46.51
35778;BME280;21899;42.662;23.316;2024-01-06T02:57:56;94074.63;;;14.69;46.82
35778;BME280;21899;42.662;23.316;2024-01-06T03:00:21;94070.78;;;14.51;47.23
35778;BME280;21899;42.662;23.316;2024-01-06T03:02:47;94072.97;;;14.56;47.01
35778;BME280;21899;42.662;23.316;2024-01-06T03:05:12;94078.19;;;14.63;47.00
35778;BME280;21899;42.662;23.316;2024-01-06T03:07:38;94071.84;;;14.53;47.41
35778;BME280;21899;42.662;23.316;2024-01-06T03:10:04;94062.53;;;14.38;46.96
35778;BME280;21899;42.662;23.316;2024-01-06T03:12:29;94080.59;;;14.41;47.25
35778;BME280;21899;42.662;23.316;2024-01-06T03:14:55;94066.63;;;14.46;46.99
35778;BME280;21899;42.662;23.316;2024-01-06T03:17:20;94071.84;;;14.14;47.38
35778;BME280;21899;42.662;23.316;2024-01-06T03:19:46;94075.16;;;14.02;47.37
35778;BME280;21899;42.662;23.316;2024-01-06T03:22:11;94064.91;;;13.74;47.58
35778;BME280;21899;42.662;23.316;2024-01-06T03:24:37;94063.88;;;13.68;47.24
35778;BME280;21899;42.662;23.316;2024-01-06T03:27:02;94062.44;;;13.83;46.85
35778;BME280;21899;42.662;23.316;2024-01-06T03:29:28;94074.31;;;14.05;46.64
35778;BME280;21899;42.662;23.316;2024-01-06T03:31:53;94069.88;;;14.18;46.26
35778;BME280;21899;42.662;23.316;2024-01-06T03:34:19;94071.28;;;14.26;45.80
35778;BME280;21899;42.662;23.316;2024-01-06T03:36:44;94070.78;;;14.31;45.66
35778;BME280;21899;42.662;23.316;2024-01-06T03:39:10;94054.69;;;14.27;45.53
35778;BME280;21899;42.662;23.316;2024-01-06T03:41:36;94060.28;;;14.36;45.25
35778;BME280;21899;42.662;23.316;2024-01-06T03:44:01;94058.69;;;14.39;44.75
35778;BME280;21899;42.662;23.316;2024-01-06T03:46:27;94061.59;;;14.28;44.37
35778;BME280;21899;42.662;23.316;2024-01-06T03:48:53;94055.69;;;14.14;44.30
35778;BME280;21899;42.662;23.316;2024-01-06T03:51:18;94064.56;;;14.34;44.01
35778;BME280;21899;42.662;23.316;2024-01-06T03:53:43;94050.28;;;14.37;43.96
35778;BME280;21899;42.662;23.316;2024-01-06T03:56:09;94052.91;;;14.41;44.04
35778;BME280;21899;42.662;23.316;2024-01-06T03:58:35;94060.69;;;14.35;44.00
35778;BME280;21899;42.662;23.316;2024-01-06T04:01:00;94054.69;;;14.27;44.09
35778;BME280;21899;42.662;23.316;2024-01-06T04:03:26;94063.19;;;14.46;43.96
35778;BME280;21899;42.662;23.316;2024-01-06T04:05:52;94059.03;;;14.41;44.43
35778;BME280;21899;42.662;23.316;2024-01-06T04:08:17;94059.72;;;14.45;44.56
35778;BME280;21899;42.662;23.316;2024-01-06T04:10:43;94039.22;;;14.31;44.53
35778;BME280;21899;42.662;23.316;2024-01-06T04:13:11;94060.69;;;14.35;44.54
35778;BME280;21899;42.662;23.316;2024-01-06T04:15:37;94041.66;;;14.26;44.40
35778;BME280;21899;42.662;23.316;2024-01-06T04:18:03;94054.94;;;14.13;44.98
35778;BME280;21899;42.662;23.316;2024-01-06T04:20:29;94061.66;;;14.25;44.68
35778;BME280;21899;42.662;23.316;2024-01-06T04:22:55;94053.44;;;14.32;44.54
35778;BME280;21899;42.662;23.316;2024-01-06T04:25:20;94038.03;;;14.13;44.87
35778;BME280;21899;42.662;23.316;2024-01-06T04:27:46;94056.97;;;14.29;44.27
35778;BME280;21899;42.662;23.316;2024-01-06T04:30:14;94047.97;;;14.16;44.83
35778;BME280;21899;42.662;23.316;2024-01-06T04:32:40;94053.84;;;14.11;44.70
35778;BME280;21899;42.662;23.316;2024-01-06T04:35:06;94063.97;;;14.23;44.56
35778;BME280;21899;42.662;23.316;2024-01-06T04:37:31;94076.16;;;14.31;44.64
35778;BME280;21899;42.662;23.316;2024-01-06T04:39:57;94064.44;;;13.98;45.27
35778;BME280;21899;42.662;23.316;2024-01-06T04:42:22;94078.31;;;13.97;45.25
35778;BME280;21899;42.662;23.316;2024-01-06T04:44:49;94077.47;;;14.00;44.81
35778;BME280;21899;42.662;23.316;2024-01-06T04:47:15;94063.41;;;14.12;45.02
35778;BME280;21899;42.662;23.316;2024-01-06T04:49:40;94080.75;;;14.11;44.91
35778;BME280;21899;42.662;23.316;2024-01-06T04:52:06;94071.28;;;14.26;44.81
35778;BME280;21899;42.662;23.316;2024-01-06T04:54:32;94078.44;;;14.32;45.04
35778;BME280;21899;42.662;23.316;2024-01-06T04:56:58;94090.13;;;14.26;44.73
35778;BME280;21899;42.662;23.316;2024-01-06T04:59:24;94080.84;;;14.27;45.14
35778;BME280;21899;42.662;23.316;2024-01-06T05:01:50;94077.16;;;14.17;45.18
35778;BME280;21899;42.662;23.316;2024-01-06T05:04:17;94077.75;;;13.86;45.94
35778;BME280;21899;42.662;23.316;2024-01-06T05:06:42;94071.31;;;14.03;45.34
35778;BME280;21899;42.662;23.316;2024-01-06T05:09:08;94048.63;;;13.81;46.13
35778;BME280;21899;42.662;23.316;2024-01-06T05:11:33;94069.09;;;13.98;45.77
35778;BME280;21899;42.662;23.316;2024-01-06T05:13:59;94053.97;;;14.04;45.84
35778;BME280;21899;42.662;23.316;2024-01-06T05:16:24;94046.50;;;13.92;45.90
35778;BME280;21899;42.662;23.316;2024-01-06T05:18:50;94059.22;;;13.91;45.62
35778;BME280;21899;42.662;23.316;2024-01-06T05:21:16;94054.25;;;14.09;45.35
35778;BME280;21899;42.662;23.316;2024-01-06T05:23:41;94034.97;;;13.72;46.24
35778;BME280;21899;42.662;23.316;2024-01-06T05:26:07;94034.19;;;13.52;46.72
35778;BME280;21899;42.662;23.316;2024-01-06T05:28:32;94047.38;;;13.66;46.58
35778;BME280;21899;42.662;23.316;2024-01-06T05:30:58;94029.84;;;13.12;47.39
35778;BME280;21899;42.662;23.316;2024-01-06T05:33:23;94029.41;;;13.40;46.96
35778;BME280;21899;42.662;23.316;2024-01-06T05:35:49;94031.94;;;13.70;46.36
35778;BME280;21899;42.662;23.316;2024-01-06T05:38:14;94031.78;;;13.77;46.21
35778;BME280;21899;42.662;23.316;2024-01-06T05:40:40;94028.00;;;13.32;46.57
35778;BME280;21899;42.662;23.316;2024-01-06T05:43:06;94016.31;;;12.92;47.62
35778;BME280;21899;42.662;23.316;2024-01-06T05:45:31;94044.28;;;13.21;47.40
35778;BME280;21899;42.662;23.316;2024-01-06T05:47:57;94035.59;;;13.37;47.36
35778;BME280;21899;42.662;23.316;2024-01-06T05:50:22;94027.16;;;13.35;47.07
35778;BME280;21899;42.662;23.316;2024-01-06T05:52:48;94030.78;;;13.48;46.67
35778;BME280;21899;42.662;23.316;2024-01-06T05:55:14;94038.38;;;13.53;46.12
35778;BME280;21899;42.662;23.316;2024-01-06T05:57:39;94034.41;;;13.15;46.72
35778;BME280;21899;42.662;23.316;2024-01-06T06:00:08;94015.59;;;13.15;46.94
35778;BME280;21899;42.662;23.316;2024-01-06T06:02:34;94038.28;;;13.14;46.51
35778;BME280;21899;42.662;23.316;2024-01-06T06:05:00;94026.50;;;13.27;46.45
35778;BME280;21899;42.662;23.316;2024-01-06T06:07:25;94031.63;;;13.45;46.23
35778;BME280;21899;42.662;23.316;2024-01-06T06:09:50;94019.91;;;13.55;45.98
35778;BME280;21899;42.662;23.316;2024-01-06T06:12:18;94008.94;;;13.23;46.29
35778;BME280;21899;42.662;23.316;2024-01-06T06:14:43;94021.78;;;13.35;45.87
35778;BME280;21899;42.662;23.316;2024-01-06T06:17:09;94024.13;;;13.56;45.77
35778;BME280;21899;42.662;23.316;2024-01-06T06:19:34;94023.34;;;13.55;45.64
35778;BME280;21899;42.662;23.316;2024-01-06T06:22:00;94013.09;;;13.50;45.75
35778;BME280;21899;42.662;23.316;2024-01-06T06:24:25;94025.97;;;13.59;45.42
35778;BME280;21899;42.662;23.316;2024-01-06T06:26:51;94033.44;;;13.71;45.27
35778;BME280;21899;42.662;23.316;2024-01-06T06:29:16;94028.81;;;13.52;46.10
35778;BME280;21899;42.662;23.316;2024-01-06T06:31:42;94039.22;;;13.50;46.01
35778;BME280;21899;42.662;23.316;2024-01-06T06:34:12;94032.06;;;13.63;45.96
35778;BME280;21899;42.662;23.316;2024-01-06T06:36:37;94026.13;;;13.52;45.87
35778;BME280;21899;42.662;23.316;2024-01-06T06:39:03;94020.84;;;13.45;46.15
35778;BME280;21899;42.662;23.316;2024-01-06T06:41:29;94039.38;;;13.39;46.31
35778;BME280;21899;42.662;23.316;2024-01-06T06:43:57;94029.06;;;13.57;45.76
35778;BME280;21899;42.662;23.316;2024-01-06T06:46:23;94042.00;;;13.66;45.76
35778;BME280;21899;42.662;23.316;2024-01-06T06:48:48;94039.13;;;13.76;45.31
35778;BME280;21899;42.662;23.316;2024-01-06T06:51:15;94028.91;;;13.87;44.99
35778;BME280;21899;42.662;23.316;2024-01-06T06:53:41;94042.44;;;13.84;44.84
35778;BME280;21899;42.662;23.316;2024-01-06T06:56:06;94051.69;;;13.83;44.26
35778;BME280;21899;42.662;23.316;2024-01-06T06:58:32;94013.06;;;13.93;44.71
35778;BME280;21899;42.662;23.316;2024-01-06T07:00:58;94014.31;;;13.46;45.31
35778;BME280;21899;42.662;23.316;2024-01-06T07:03:24;94044.09;;;13.78;44.94
35778;BME280;21899;42.662;23.316;2024-01-06T07:05:52;94028.44;;;13.92;45.10
35778;BME280;21899;42.662;23.316;2024-01-06T07:08:17;94043.44;;;14.13;44.76
35778;BME280;21899;42.662;23.316;2024-01-06T07:10:43;94021.25;;;14.05;44.86
35778;BME280;21899;42.662;23.316;2024-01-06T07:13:09;94035.41;;;14.09;44.76
35778;BME280;21899;42.662;23.316;2024-01-06T07:15:34;94032.25;;;14.34;44.33
35778;BME280;21899;42.662;23.316;2024-01-06T07:18:00;94032.94;;;14.38;44.37
35778;BME280;21899;42.662;23.316;2024-01-06T07:20:25;94038.53;;;14.47;44.55
35778;BME280;21899;42.662;23.316;2024-01-06T07:22:51;94030.13;;;14.61;44.37
35778;BME280;21899;42.662;23.316;2024-01-06T07:25:16;94033.53;;;14.81;43.98
35778;BME280;21899;42.662;23.316;2024-01-06T07:27:42;94029.44;;;14.93;43.86
35778;BME280;21899;42.662;23.316;2024-01-06T07:30:07;94030.13;;;14.97;43.97
35778;BME280;21899;42.662;23.316;2024-01-06T07:32:34;94009.22;;;15.01;43.81
35778;BME280;21899;42.662;23.316;2024-01-06T07:35:00;94020.94;;;15.10;43.10
35778;BME280;21899;42.662;23.316;2024-01-06T07:37:25;94031.22;;;15.15;43.11
35778;BME280;21899;42.662;23.316;2024-01-06T07:39:51;94023.81;;;15.19;42.90
35778;BME280;21899;42.662;23.316;2024-01-06T07:42:17;94016.75;;;15.25;42.86
35778;BME280;21899;42.662;23.316;2024-01-06T07:44:43;94019.66;;;15.31;42.82
35778;BME280;21899;42.662;23.316;2024-01-06T07:47:09;94014.06;;;15.41;42.54
35778;BME280;21899;42.662;23.316;2024-01-06T07:49:35;94021.44;;;15.37;42.17
35778;BME280;21899;42.662;23.316;2024-01-06T07:52:01;94028.69;;;15.56;42.25
35778;BME280;21899;42.662;23.316;2024-01-06T07:54:27;94012.13;;;15.71;41.92
35778;BME280;21899;42.662;23.316;2024-01-06T07:56:52;94026.66;;;15.60;41.78
35778;BME280;21899;42.662;23.316;2024-01-06T07:59:18;94021.91;;;15.81;41.50
35778;BME280;21899;42.662;23.316;2024-01-06T08:01:43;94017.59;;;15.83;41.25
35778;BME280;21899;42.662;23.316;2024-01-06T08:04:09;94025.91;;;16.05;41.20
35778;BME280;21899;42.662;23.316;2024-01-06T08:06:34;94013.16;;;15.60;41.58
35778;BME280;21899;42.662;23.316;2024-01-06T08:09:01;94036.25;;;15.78;41.05
35778;BME280;21899;42.662;23.316;2024-01-06T08:11:26;94020.19;;;15.87;41.38
35778;BME280;21899;42.662;23.316;2024-01-06T08:13:52;94012.94;;;15.39;40.76
35778;BME280;21899;42.662;23.316;2024-01-06T08:16:18;94042.84;;;15.60;40.86
35778;BME280;21899;42.662;23.316;2024-01-06T08:18:44;94011.72;;;15.72;40.50
35778;BME280;21899;42.662;23.316;2024-01-06T08:21:10;94003.06;;;15.64;41.07
35778;BME280;21899;42.662;23.316;2024-01-06T08:23:35;94022.28;;;15.95;40.54
35778;BME280;21899;42.662;23.316;2024-01-06T08:26:01;93999.06;;;15.69;40.63
35778;BME280;21899;42.662;23.316;2024-01-06T08:28:27;94027.13;;;15.88;40.16
35778;BME280;21899;42.662;23.316;2024-01-06T08:30:53;94024.19;;;16.11;40.29
35778;BME280;21899;42.662;23.316;2024-01-06T08:33:18;94001.78;;;15.69;40.32
35778;BME280;21899;42.662;23.316;2024-01-06T08:35:44;94014.09;;;15.54;40.69
35778;BME280;21899;42.662;23.316;2024-01-06T08:38:10;94022.06;;;15.74;40.23
35778;BME280;21899;42.662;23.316;2024-01-06T08:40:35;94013.91;;;15.77;40.29
35778;BME280;21899;42.662;23.316;2024-01-06T08:43:02;94001.06;;;15.36;41.17
35778;BME280;21899;42.662;23.316;2024-01-06T08:45:28;94030.88;;;15.61;40.43
35778;BME280;21899;42.662;23.316;2024-01-06T08:47:53;94025.91;;;16.05;40.39
35778;BME280;21899;42.662;23.316;2024-01-06T08:50:19;94005.81;;;15.77;40.25
35778;BME280;21899;42.662;23.316;2024-01-06T08:52:44;94027.16;;;16.29;39.19
35778;BME280;21899;42.662;23.316;2024-01-06T08:55:10;94013.22;;;16.43;39.02
35778;BME280;21899;42.662;23.316;2024-01-06T08:57:35;94022.59;;;16.67;38.39
35778;BME280;21899;42.662;23.316;2024-01-06T09:00:03;94003.34;;;16.65;38.09
35778;BME280;21899;42.662;23.316;2024-01-06T09:02:29;94005.09;;;16.59;38.40
35778;BME280;21899;42.662;23.316;2024-01-06T09:04:54;94025.31;;;16.92;38.13
35778;BME280;21899;42.662;23.316;2024-01-06T09:07:20;93985.06;;;16.56;38.12
35778;BME280;21899;42.662;23.316;2024-01-06T09:09:45;94003.94;;;16.44;39.13
35778;BME280;21899;42.662;23.316;2024-01-06T09:12:11;94018.06;;;16.64;39.14
35778;BME280;21899;42.662;23.316;2024-01-06T09:14:36;93946.19;;;16.00;39.56
35778;BME280;21899;42.662;23.316;2024-01-06T09:17:02;94000.84;;;16.04;39.93
35778;BME280;21899;42.662;23.316;2024-01-06T09:19:28;93972.19;;;16.48;39.71
35778;BME280;21899;42.662;23.316;2024-01-06T09:21:54;93990.53;;;16.28;39.53
35778;BME280;21899;42.662;23.316;2024-01-06T09:24:20;93974.69;;;16.55;39.28
35778;BME280;21899;42.662;23.316;2024-01-06T09:26:46;93957.66;;;16.04;40.37
35778;BME280;21899;42.662;23.316;2024-01-06T09:29:11;93978.00;;;16.34;39.63
35778;BME280;21899;42.662;23.316;2024-01-06T09:31:37;93958.47;;;16.42;39.56
35778;BME280;21899;42.662;23.316;2024-01-06T09:34:03;93958.13;;;16.28;40.16
35778;BME280;21899;42.662;23.316;2024-01-06T09:36:30;93954.09;;;16.61;38.71
35778;BME280;21899;42.662;23.316;2024-01-06T09:38:56;93940.34;;;16.55;38.75
35778;BME280;21899;42.662;23.316;2024-01-06T09:41:22;93964.00;;;16.76;39.09
35778;BME280;21899;42.662;23.316;2024-01-06T09:43:48;93946.69;;;16.99;38.50
35778;BME280;21899;42.662;23.316;2024-01-06T09:46:40;93940.22;;;16.97;38.50
35778;BME280;21899;42.662;23.316;2024-01-06T09:49:06;93948.13;;;17.38;38.14
35778;BME280;21899;42.662;23.316;2024-01-06T09:51:36;93934.03;;;17.77;37.48
35778;BME280;21899;42.662;23.316;2024-01-06T09:54:05;93905.34;;;17.24;38.04
35778;BME280;21899;42.662;23.316;2024-01-06T09:56:33;93931.06;;;17.16;38.12
35778;BME280;21899;42.662;23.316;2024-01-06T09:58:59;93933.41;;;17.51;37.87
35778;BME280;21899;42.662;23.316;2024-01-06T10:01:25;93922.28;;;17.24;38.08
35778;BME280;21899;42.662;23.316;2024-01-06T10:03:51;93918.75;;;17.61;37.73
35778;BME280;21899;42.662;23.316;2024-01-06T10:06:17;93922.31;;;18.01;37.11
35778;BME280;21899;42.662;23.316;2024-01-06T10:08:44;93917.16;;;18.16;36.80
35778;BME280;21899;42.662;23.316;2024-01-06T10:11:10;93902.84;;;17.85;37.03
35778;BME280;21899;42.662;23.316;2024-01-06T10:13:36;93904.69;;;17.75;37.42
35778;BME280;21899;42.662;23.316;2024-01-06T10:16:04;93895.88;;;18.05;36.97
35778;BME280;21899;42.662;23.316;2024-01-06T10:18:30;93883.94;;;17.72;37.35
35778;BME280;21899;42.662;23.316;2024-01-06T10:20:57;93883.16;;;17.72;37.58
35778;BME280;21899;42.662;23.316;2024-01-06T10:23:23;93895.84;;;17.96;37.47
35778;BME280;21899;42.662;23.316;2024-01-06T10:25:52;93879.38;;;18.12;37.11
35778;BME280;21899;42.662;23.316;2024-01-06T10:28:18;93885.13;;;18.23;36.86
35778;BME280;21899;42.662;23.316;2024-01-06T10:30:43;93869.84;;;18.39;36.25
35778;BME280;21899;42.662;23.316;2024-01-06T10:33:09;93887.31;;;18.38;36.76
35778;BME280;21899;42.662;23.316;2024-01-06T10:35:36;93868.72;;;18.49;36.26
35778;BME280;21899;42.662;23.316;2024-01-06T10:38:02;93866.47;;;18.26;36.73
35778;BME280;21899;42.662;23.316;2024-01-06T10:40:28;93865.56;;;18.50;36.34
35778;BME280;21899;42.662;23.316;2024-01-06T10:42:55;93868.84;;;18.94;35.90
35778;BME280;21899;42.662;23.316;2024-01-06T10:45:23;93842.19;;;18.92;35.95
35778;BME280;21899;42.662;23.316;2024-01-06T10:47:49;93861.59;;;18.91;35.63
35778;BME280;21899;42.662;23.316;2024-01-06T10:50:17;93840.38;;;18.41;36.50
35778;BME280;21899;42.662;23.316;2024-01-06T10:52:46;93836.56;;;18.69;35.49
35778;BME280;21899;42.662;23.316;2024-01-06T10:55:15;93853.41;;;18.64;35.46
35778;BME280;21899;42.662;23.316;2024-01-06T10:57:43;93845.31;;;18.91;35.41
35778;BME280;21899;42.662;23.316;2024-01-06T11:00:10;93838.00;;;18.43;35.72
35778;BME280;21899;42.662;23.316;2024-01-06T11:02:37;93840.63;;;18.34;35.71
35778;BME280;21899;42.662;23.316;2024-01-06T11:05:04;93825.88;;;18.35;35.97
35778;BME280;21899;42.662;23.316;2024-01-06T11:07:33;93814.38;;;18.21;36.33
35778;BME280;21899;42.662;23.316;2024-01-06T11:12:31;93815.78;;;18.93;35.61
35778;BME280;21899;42.662;23.316;2024-01-06T11:14:57;93814.03;;;18.41;35.14
35778;BME280;21899;42.662;23.316;2024-01-06T11:17:51;93806.75;;;17.98;36.26
35778;BME280;21899;42.662;23.316;2024-01-06T11:20:22;93800.91;;;18.00;36.06
35778;BME280;21899;42.662;23.316;2024-01-06T11:22:49;93799.59;;;18.04;36.07
35778;BME280;21899;42.662;23.316;2024-01-06T11:25:16;93809.91;;;18.28;35.69
35778;BME280;21899;42.662;23.316;2024-01-06T11:27:43;93785.16;;;18.07;36.15
35778;BME280;21899;42.662;23.316;2024-01-06T11:30:26;93790.50;;;18.29;36.11
35778;BME280;21899;42.662;23.316;2024-01-06T11:32:56;93793.75;;;18.55;35.37
35778;BME280;21899;42.662;23.316;2024-01-06T11:35:26;93779.28;;;18.09;36.31
35778;BME280;21899;42.662;23.316;2024-01-06T11:37:54;93787.00;;;18.59;35.70
35778;BME280;21899;42.662;23.316;2024-01-06T11:43:08;93751.63;;;18.72;34.84
35778;BME280;21899;42.662;23.316;2024-01-06T11:45:34;93767.25;;;18.68;35.32
35778;BME280;21899;42.662;23.316;2024-01-06T11:48:04;93762.47;;;19.17;34.89
35778;BME280;21899;42.662;23.316;2024-01-06T11:50:32;93737.47;;;18.77;34.94
35778;BME280;21899;42.662;23.316;2024-01-06T11:52:59;93741.38;;;19.03;34.89
35778;BME280;21899;42.662;23.316;2024-01-06T11:55:27;93720.41;;;19.12;34.47
35778;BME280;21899;42.662;23.316;2024-01-06T11:57:54;93733.53;;;18.96;34.42
35778;BME280;21899;42.662;23.316;2024-01-06T12:00:21;93741.38;;;19.30;33.89
35778;BME280;21899;42.662;23.316;2024-01-06T12:02:47;93724.63;;;19.40;33.78
35778;BME280;21899;42.662;23.316;2024-01-06T12:05:16;93728.19;;;19.56;33.90
35778;BME280;21899;42.662;23.316;2024-01-06T12:08:04;93710.00;;;19.29;33.66
35778;BME280;21899;42.662;23.316;2024-01-06T12:10:31;93712.75;;;18.66;34.10
35778;BME280;21899;42.662;23.316;2024-01-06T12:13:01;93697.97;;;18.58;34.90
35778;BME280;21899;42.662;23.316;2024-01-06T12:15:29;93687.06;;;18.21;35.21
35778;BME280;21899;42.662;23.316;2024-01-06T12:17:55;93676.31;;;18.49;35.01
35778;BME280;21899;42.662;23.316;2024-01-06T12:20:25;93686.81;;;19.01;34.53
35778;BME280;21899;42.662;23.316;2024-01-06T12:22:55;93695.69;;;19.19;34.25
35778;BME280;21899;42.662;23.316;2024-01-06T12:25:23;93710.31;;;19.40;33.70
35778;BME280;21899;42.662;23.316;2024-01-06T12:27:52;93709.03;;;19.59;33.78
35778;BME280;21899;42.662;23.316;2024-01-06T12:30:20;93711.13;;;19.73;33.71
35778;BME280;21899;42.662;23.316;2024-01-06T12:32:47;93711.75;;;19.68;32.85
35778;BME280;21899;42.662;23.316;2024-01-06T12:35:14;93698.78;;;19.63;33.13
35778;BME280;21899;42.662;23.316;2024-01-06T12:37:44;93721.00;;;19.43;33.53
35778;BME280;21899;42.662;23.316;2024-01-06T12:40:13;93713.34;;;19.33;33.40
35778;BME280;21899;42.662;23.316;2024-01-06T12:42:40;93698.09;;;19.17;33.62
35778;BME280;21899;42.662;23.316;2024-01-06T12:45:06;93685.78;;;18.53;35.10
35778;BME280;21899;42.662;23.316;2024-01-06T12:47:32;93688.97;;;18.79;35.25
35778;BME280;21899;42.662;23.316;2024-01-06T12:49:58;93688.94;;;19.06;34.84